East Eldorado, Illinois
Current Conditions -  °F | °C
As of 3:35 AM on Thursday 23 Oct 2014 (Local Time) from KHSB Reporting Station
Moderate Fog Moderate Fog  
Wind Chill: 35°   Ceiling: 500
Heat Index: 35°   Visibility: 0.5mi
Dew Point: 35°   Wind: 0mph
Humidity: 100%   Direction: NA
Pressure: 30.25"   Gusts: NA
Location:  37.8101°N, 88.4411°W
Report Text: KHSB 230835Z AUTO 00000KT 1/2SM FG VV005 02/02 A3025 RMK AO2 T00190019
Loading
Personal Weather Stations






























Interactive Weather Map
Tropical Storm Tracking
New forecast layout! Learn more

10-Day Weather Forecast

Advertisements
Track Severe Weather on mobile